sensor_id;sensor_type;location;lat;lon;timestamp;P1;durP1;ratioP1;P2;durP2;ratioP2
26106;SDS011;13866;50.748;12.630;2023-04-30T00:00:46;19.80;;;17.80;;
26106;SDS011;13866;50.748;12.630;2023-04-30T00:03:11;19.60;;;17.57;;
26106;SDS011;13866;50.748;12.630;2023-04-30T00:05:37;20.23;;;18.20;;
26106;SDS011;13866;50.748;12.630;2023-04-30T00:08:03;24.90;;;18.27;;
26106;SDS011;13866;50.748;12.630;2023-04-30T00:10:29;23.57;;;18.47;;
26106;SDS011;13866;50.748;12.630;2023-04-30T00:12:54;19.67;;;17.67;;
26106;SDS011;13866;50.748;12.630;2023-04-30T00:15:21;18.93;;;17.10;;
26106;SDS011;13866;50.748;12.630;2023-04-30T00:17:46;19.23;;;16.87;;
26106;SDS011;13866;50.748;12.630;2023-04-30T00:20:12;18.43;;;16.70;;
26106;SDS011;13866;50.748;12.630;2023-04-30T00:22:37;19.73;;;18.03;;
26106;SDS011;13866;50.748;12.630;2023-04-30T00:25:03;18.57;;;16.50;;
26106;SDS011;13866;50.748;12.630;2023-04-30T00:27:28;18.80;;;16.60;;
26106;SDS011;13866;50.748;12.630;2023-04-30T00:29:55;18.53;;;16.87;;
26106;SDS011;13866;50.748;12.630;2023-04-30T00:32:21;18.37;;;16.27;;
26106;SDS011;13866;50.748;12.630;2023-04-30T00:34:46;18.40;;;16.60;;
26106;SDS011;13866;50.748;12.630;2023-04-30T00:37:12;17.70;;;15.47;;
26106;SDS011;13866;50.748;12.630;2023-04-30T00:39:37;22.90;;;17.83;;
26106;SDS011;13866;50.748;12.630;2023-04-30T00:42:03;17.57;;;15.90;;
26106;SDS011;13866;50.748;12.630;2023-04-30T00:44:29;16.83;;;15.43;;
26106;SDS011;13866;50.748;12.630;2023-04-30T00:46:54;16.53;;;15.00;;
26106;SDS011;13866;50.748;12.630;2023-04-30T00:49:20;17.37;;;15.53;;
26106;SDS011;13866;50.748;12.630;2023-04-30T00:51:45;20.70;;;17.20;;
26106;SDS011;13866;50.748;12.630;2023-04-30T00:54:11;15.87;;;14.70;;
26106;SDS011;13866;50.748;12.630;2023-04-30T00:56:37;17.67;;;15.90;;
26106;SDS011;13866;50.748;12.630;2023-04-30T00:59:02;22.60;;;15.73;;
26106;SDS011;13866;50.748;12.630;2023-04-30T01:01:28;16.37;;;14.80;;
26106;SDS011;13866;50.748;12.630;2023-04-30T01:03:54;18.33;;;16.63;;
26106;SDS011;13866;50.748;12.630;2023-04-30T01:06:19;16.53;;;15.17;;
26106;SDS011;13866;50.748;12.630;2023-04-30T01:08:45;18.43;;;16.50;;
26106;SDS011;13866;50.748;12.630;2023-04-30T01:11:25;23.20;;;16.17;;
26106;SDS011;13866;50.748;12.630;2023-04-30T01:16:39;15.90;;;14.50;;
26106;SDS011;13866;50.748;12.630;2023-04-30T01:19:23;14.37;;;13.07;;
26106;SDS011;13866;50.748;12.630;2023-04-30T01:21:58;18.70;;;14.20;;
26106;SDS011;13866;50.748;12.630;2023-04-30T01:24:37;14.50;;;13.13;;
26106;SDS011;13866;50.748;12.630;2023-04-30T01:30:25;13.67;;;10.93;;
26106;SDS011;13866;50.748;12.630;2023-04-30T01:32:51;16.67;;;10.27;;
26106;SDS011;13866;50.748;12.630;2023-04-30T01:35:17;11.10;;;10.33;;
26106;SDS011;13866;50.748;12.630;2023-04-30T01:37:45;9.87;;;9.27;;
26106;SDS011;13866;50.748;12.630;2023-04-30T01:40:26;11.67;;;10.53;;
26106;SDS011;13866;50.748;12.630;2023-04-30T01:43:07;12.27;;;11.10;;
26106;SDS011;13866;50.748;12.630;2023-04-30T01:45:48;14.00;;;10.23;;
26106;SDS011;13866;50.748;12.630;2023-04-30T01:48:27;14.10;;;11.60;;
26106;SDS011;13866;50.748;12.630;2023-04-30T01:53:42;13.23;;;12.23;;
26106;SDS011;13866;50.748;12.630;2023-04-30T01:56:11;12.73;;;11.60;;
26106;SDS011;13866;50.748;12.630;2023-04-30T01:58:55;12.70;;;9.97;;
26106;SDS011;13866;50.748;12.630;2023-04-30T02:01:28;11.13;;;10.20;;
26106;SDS011;13866;50.748;12.630;2023-04-30T02:03:56;10.07;;;9.20;;
26106;SDS011;13866;50.748;12.630;2023-04-30T02:06:25;10.67;;;10.00;;
26106;SDS011;13866;50.748;12.630;2023-04-30T02:08:54;8.63;;;8.03;;
26106;SDS011;13866;50.748;12.630;2023-04-30T02:11:20;16.17;;;8.10;;
26106;SDS011;13866;50.748;12.630;2023-04-30T02:13:48;8.43;;;7.73;;
26106;SDS011;13866;50.748;12.630;2023-04-30T02:16:14;9.97;;;9.23;;
26106;SDS011;13866;50.748;12.630;2023-04-30T02:18:39;8.43;;;7.70;;
26106;SDS011;13866;50.748;12.630;2023-04-30T02:21:05;8.37;;;7.70;;
26106;SDS011;13866;50.748;12.630;2023-04-30T02:23:30;8.00;;;7.47;;
26106;SDS011;13866;50.748;12.630;2023-04-30T02:25:56;8.20;;;7.63;;
26106;SDS011;13866;50.748;12.630;2023-04-30T02:28:21;8.00;;;7.60;;
26106;SDS011;13866;50.748;12.630;2023-04-30T02:30:47;9.90;;;8.87;;
26106;SDS011;13866;50.748;12.630;2023-04-30T02:33:12;8.53;;;8.03;;
26106;SDS011;13866;50.748;12.630;2023-04-30T02:35:39;7.63;;;7.33;;
26106;SDS011;13866;50.748;12.630;2023-04-30T02:38:05;7.40;;;6.83;;
26106;SDS011;13866;50.748;12.630;2023-04-30T02:40:30;7.57;;;6.97;;
26106;SDS011;13866;50.748;12.630;2023-04-30T02:42:56;8.80;;;8.20;;
26106;SDS011;13866;50.748;12.630;2023-04-30T02:45:21;11.13;;;9.20;;
26106;SDS011;13866;50.748;12.630;2023-04-30T02:47:47;9.60;;;8.60;;
26106;SDS011;13866;50.748;12.630;2023-04-30T02:50:13;12.73;;;8.83;;
26106;SDS011;13866;50.748;12.630;2023-04-30T02:52:38;9.37;;;8.50;;
26106;SDS011;13866;50.748;12.630;2023-04-30T02:55:04;9.93;;;9.23;;
26106;SDS011;13866;50.748;12.630;2023-04-30T02:57:30;9.20;;;8.60;;
26106;SDS011;13866;50.748;12.630;2023-04-30T02:59:56;11.07;;;10.00;;
26106;SDS011;13866;50.748;12.630;2023-04-30T03:02:21;9.30;;;8.47;;
26106;SDS011;13866;50.748;12.630;2023-04-30T03:04:47;9.80;;;8.30;;
26106;SDS011;13866;50.748;12.630;2023-04-30T03:07:13;9.47;;;8.87;;
26106;SDS011;13866;50.748;12.630;2023-04-30T03:09:39;8.23;;;7.83;;
26106;SDS011;13866;50.748;12.630;2023-04-30T03:12:04;9.03;;;8.30;;
26106;SDS011;13866;50.748;12.630;2023-04-30T03:14:30;9.13;;;8.30;;
26106;SDS011;13866;50.748;12.630;2023-04-30T03:16:55;8.07;;;7.67;;
26106;SDS011;13866;50.748;12.630;2023-04-30T03:19:21;13.43;;;7.50;;
26106;SDS011;13866;50.748;12.630;2023-04-30T03:21:49;9.87;;;8.17;;
26106;SDS011;13866;50.748;12.630;2023-04-30T03:24:18;8.07;;;7.27;;
26106;SDS011;13866;50.748;12.630;2023-04-30T03:26:44;8.17;;;7.50;;
26106;SDS011;13866;50.748;12.630;2023-04-30T03:29:10;7.70;;;7.20;;
26106;SDS011;13866;50.748;12.630;2023-04-30T03:31:36;6.40;;;6.00;;
26106;SDS011;13866;50.748;12.630;2023-04-30T03:34:01;7.70;;;7.10;;
26106;SDS011;13866;50.748;12.630;2023-04-30T03:36:27;16.10;;;6.83;;
26106;SDS011;13866;50.748;12.630;2023-04-30T03:38:52;7.63;;;7.10;;
26106;SDS011;13866;50.748;12.630;2023-04-30T03:41:17;7.73;;;7.27;;
26106;SDS011;13866;50.748;12.630;2023-04-30T03:43:43;8.07;;;7.60;;
26106;SDS011;13866;50.748;12.630;2023-04-30T03:46:09;8.07;;;6.73;;
26106;SDS011;13866;50.748;12.630;2023-04-30T03:48:34;6.73;;;6.43;;
26106;SDS011;13866;50.748;12.630;2023-04-30T03:51:00;10.80;;;6.83;;
26106;SDS011;13866;50.748;12.630;2023-04-30T03:53:25;6.70;;;6.50;;
26106;SDS011;13866;50.748;12.630;2023-04-30T03:55:51;7.97;;;7.10;;
26106;SDS011;13866;50.748;12.630;2023-04-30T03:58:18;6.93;;;6.30;;
26106;SDS011;13866;50.748;12.630;2023-04-30T04:00:43;6.97;;;6.67;;
26106;SDS011;13866;50.748;12.630;2023-04-30T04:03:12;6.50;;;6.30;;
26106;SDS011;13866;50.748;12.630;2023-04-30T04:05:38;6.87;;;6.47;;
26106;SDS011;13866;50.748;12.630;2023-04-30T04:08:04;8.00;;;7.30;;
26106;SDS011;13866;50.748;12.630;2023-04-30T04:10:30;8.33;;;7.73;;
26106;SDS011;13866;50.748;12.630;2023-04-30T04:12:56;8.50;;;7.80;;
26106;SDS011;13866;50.748;12.630;2023-04-30T04:15:22;7.23;;;6.70;;
26106;SDS011;13866;50.748;12.630;2023-04-30T04:17:47;8.40;;;7.70;;
26106;SDS011;13866;50.748;12.630;2023-04-30T04:20:13;7.77;;;7.27;;
26106;SDS011;13866;50.748;12.630;2023-04-30T04:22:38;8.77;;;8.27;;
26106;SDS011;13866;50.748;12.630;2023-04-30T04:25:04;7.83;;;7.27;;
26106;SDS011;13866;50.748;12.630;2023-04-30T04:27:31;9.63;;;8.27;;
26106;SDS011;13866;50.748;12.630;2023-04-30T04:29:56;24.23;;;8.37;;
26106;SDS011;13866;50.748;12.630;2023-04-30T04:32:22;8.23;;;7.73;;
26106;SDS011;13866;50.748;12.630;2023-04-30T04:34:48;9.03;;;8.30;;
26106;SDS011;13866;50.748;12.630;2023-04-30T04:37:14;8.50;;;7.90;;
26106;SDS011;13866;50.748;12.630;2023-04-30T04:39:41;8.90;;;8.20;;
26106;SDS011;13866;50.748;12.630;2023-04-30T04:42:07;7.47;;;7.10;;
26106;SDS011;13866;50.748;12.630;2023-04-30T04:44:32;7.77;;;7.37;;
26106;SDS011;13866;50.748;12.630;2023-04-30T04:46:57;9.83;;;8.97;;
26106;SDS011;13866;50.748;12.630;2023-04-30T04:49:23;10.13;;;7.63;;
26106;SDS011;13866;50.748;12.630;2023-04-30T04:51:48;12.20;;;8.57;;
26106;SDS011;13866;50.748;12.630;2023-04-30T04:54:14;8.20;;;7.60;;
26106;SDS011;13866;50.748;12.630;2023-04-30T04:56:39;8.80;;;8.30;;
26106;SDS011;13866;50.748;12.630;2023-04-30T04:59:05;9.60;;;7.17;;
26106;SDS011;13866;50.748;12.630;2023-04-30T05:01:31;7.67;;;6.93;;
26106;SDS011;13866;50.748;12.630;2023-04-30T05:03:57;10.90;;;8.80;;
26106;SDS011;13866;50.748;12.630;2023-04-30T05:06:22;12.87;;;9.07;;
26106;SDS011;13866;50.748;12.630;2023-04-30T05:08:48;15.37;;;8.20;;
26106;SDS011;13866;50.748;12.630;2023-04-30T05:11:13;9.77;;;7.63;;
26106;SDS011;13866;50.748;12.630;2023-04-30T05:13:38;8.17;;;7.67;;
26106;SDS011;13866;50.748;12.630;2023-04-30T05:16:05;7.57;;;7.27;;
26106;SDS011;13866;50.748;12.630;2023-04-30T05:18:31;12.77;;;8.00;;
26106;SDS011;13866;50.748;12.630;2023-04-30T05:20:56;8.67;;;7.63;;
26106;SDS011;13866;50.748;12.630;2023-04-30T05:23:22;7.83;;;7.00;;
26106;SDS011;13866;50.748;12.630;2023-04-30T05:25:51;9.60;;;6.80;;
26106;SDS011;13866;50.748;12.630;2023-04-30T05:28:16;7.47;;;6.97;;
26106;SDS011;13866;50.748;12.630;2023-04-30T05:30:42;10.37;;;7.87;;
26106;SDS011;13866;50.748;12.630;2023-04-30T05:33:07;7.67;;;6.67;;
26106;SDS011;13866;50.748;12.630;2023-04-30T05:35:33;8.33;;;7.60;;
26106;SDS011;13866;50.748;12.630;2023-04-30T05:38:00;8.67;;;6.83;;
26106;SDS011;13866;50.748;12.630;2023-04-30T05:40:27;8.73;;;6.70;;
26106;SDS011;13866;50.748;12.630;2023-04-30T05:42:53;11.23;;;6.93;;
26106;SDS011;13866;50.748;12.630;2023-04-30T05:45:18;7.33;;;6.63;;
26106;SDS011;13866;50.748;12.630;2023-04-30T05:47:44;10.83;;;5.93;;
26106;SDS011;13866;50.748;12.630;2023-04-30T05:50:09;6.93;;;6.13;;
26106;SDS011;13866;50.748;12.630;2023-04-30T05:52:35;6.67;;;6.13;;
26106;SDS011;13866;50.748;12.630;2023-04-30T05:55:01;7.23;;;5.90;;
26106;SDS011;13866;50.748;12.630;2023-04-30T05:57:26;12.43;;;6.60;;
26106;SDS011;13866;50.748;12.630;2023-04-30T05:59:52;13.17;;;6.77;;
26106;SDS011;13866;50.748;12.630;2023-04-30T06:02:18;7.50;;;5.73;;
26106;SDS011;13866;50.748;12.630;2023-04-30T06:04:44;7.37;;;6.70;;
26106;SDS011;13866;50.748;12.630;2023-04-30T06:07:09;12.63;;;8.13;;
26106;SDS011;13866;50.748;12.630;2023-04-30T06:09:35;6.70;;;6.30;;
26106;SDS011;13866;50.748;12.630;2023-04-30T06:12:00;8.13;;;7.40;;
26106;SDS011;13866;50.748;12.630;2023-04-30T06:14:26;7.80;;;7.10;;
26106;SDS011;13866;50.748;12.630;2023-04-30T06:16:52;8.77;;;8.17;;
26106;SDS011;13866;50.748;12.630;2023-04-30T06:19:17;8.80;;;7.80;;
26106;SDS011;13866;50.748;12.630;2023-04-30T06:21:43;11.67;;;9.17;;
26106;SDS011;13866;50.748;12.630;2023-04-30T06:24:08;13.57;;;10.40;;
26106;SDS011;13866;50.748;12.630;2023-04-30T06:26:34;11.27;;;9.00;;
26106;SDS011;13866;50.748;12.630;2023-04-30T06:29:00;9.67;;;9.07;;
26106;SDS011;13866;50.748;12.630;2023-04-30T06:31:26;10.67;;;9.83;;
26106;SDS011;13866;50.748;12.630;2023-04-30T06:33:51;9.73;;;9.13;;
26106;SDS011;13866;50.748;12.630;2023-04-30T06:36:17;19.37;;;16.20;;
26106;SDS011;13866;50.748;12.630;2023-04-30T06:38:43;16.50;;;14.57;;
26106;SDS011;13866;50.748;12.630;2023-04-30T06:41:10;11.27;;;10.47;;
26106;SDS011;13866;50.748;12.630;2023-04-30T06:43:36;14.83;;;9.77;;
26106;SDS011;13866;50.748;12.630;2023-04-30T06:46:01;14.77;;;8.90;;
26106;SDS011;13866;50.748;12.630;2023-04-30T06:48:27;13.67;;;10.33;;
26106;SDS011;13866;50.748;12.630;2023-04-30T06:50:53;12.67;;;11.37;;
26106;SDS011;13866;50.748;12.630;2023-04-30T06:53:18;14.20;;;12.93;;
26106;SDS011;13866;50.748;12.630;2023-04-30T06:55:45;17.60;;;13.27;;
26106;SDS011;13866;50.748;12.630;2023-04-30T06:58:11;17.70;;;11.60;;
26106;SDS011;13866;50.748;12.630;2023-04-30T07:00:36;13.17;;;10.87;;
26106;SDS011;13866;50.748;12.630;2023-04-30T07:03:02;30.60;;;10.07;;
26106;SDS011;13866;50.748;12.630;2023-04-30T07:05:29;16.13;;;10.33;;
26106;SDS011;13866;50.748;12.630;2023-04-30T07:07:55;10.50;;;9.50;;
26106;SDS011;13866;50.748;12.630;2023-04-30T07:10:21;11.07;;;9.17;;
26106;SDS011;13866;50.748;12.630;2023-04-30T07:12:47;9.03;;;8.40;;
26106;SDS011;13866;50.748;12.630;2023-04-30T07:15:12;10.07;;;9.03;;
26106;SDS011;13866;50.748;12.630;2023-04-30T07:17:38;13.57;;;8.97;;
26106;SDS011;13866;50.748;12.630;2023-04-30T07:20:05;15.70;;;9.00;;
26106;SDS011;13866;50.748;12.630;2023-04-30T07:22:33;20.57;;;9.77;;
26106;SDS011;13866;50.748;12.630;2023-04-30T07:24:59;9.50;;;8.47;;
26106;SDS011;13866;50.748;12.630;2023-04-30T07:27:26;16.77;;;8.07;;
26106;SDS011;13866;50.748;12.630;2023-04-30T07:29:53;10.13;;;9.13;;
26106;SDS011;13866;50.748;12.630;2023-04-30T07:32:19;9.00;;;8.23;;
26106;SDS011;13866;50.748;12.630;2023-04-30T07:34:45;10.37;;;7.93;;
26106;SDS011;13866;50.748;12.630;2023-04-30T07:37:11;8.83;;;8.13;;
26106;SDS011;13866;50.748;12.630;2023-04-30T07:39:37;8.97;;;8.13;;
26106;SDS011;13866;50.748;12.630;2023-04-30T07:42:03;11.33;;;9.67;;
26106;SDS011;13866;50.748;12.630;2023-04-30T07:44:28;11.90;;;10.70;;
26106;SDS011;13866;50.748;12.630;2023-04-30T07:46:56;15.17;;;13.67;;
26106;SDS011;13866;50.748;12.630;2023-04-30T07:49:21;17.73;;;14.40;;
26106;SDS011;13866;50.748;12.630;2023-04-30T07:51:47;15.20;;;13.63;;
26106;SDS011;13866;50.748;12.630;2023-04-30T07:54:12;13.40;;;12.20;;
26106;SDS011;13866;50.748;12.630;2023-04-30T07:56:38;11.70;;;10.50;;
26106;SDS011;13866;50.748;12.630;2023-04-30T07:59:04;11.23;;;9.17;;
26106;SDS011;13866;50.748;12.630;2023-04-30T08:01:30;13.73;;;8.90;;
26106;SDS011;13866;50.748;12.630;2023-04-30T08:03:56;14.40;;;9.40;;
26106;SDS011;13866;50.748;12.630;2023-04-30T08:06:21;10.70;;;8.73;;
26106;SDS011;13866;50.748;12.630;2023-04-30T08:08:47;11.30;;;10.33;;
26106;SDS011;13866;50.748;12.630;2023-04-30T08:11:12;7.93;;;7.33;;
26106;SDS011;13866;50.748;12.630;2023-04-30T08:13:39;11.20;;;10.60;;
26106;SDS011;13866;50.748;12.630;2023-04-30T08:16:05;11.77;;;10.53;;
26106;SDS011;13866;50.748;12.630;2023-04-30T08:18:31;21.63;;;12.50;;
26106;SDS011;13866;50.748;12.630;2023-04-30T08:20:56;11.13;;;10.03;;
26106;SDS011;13866;50.748;12.630;2023-04-30T08:23:22;13.03;;;9.57;;
26106;SDS011;13866;50.748;12.630;2023-04-30T08:25:47;10.77;;;8.43;;
26106;SDS011;13866;50.748;12.630;2023-04-30T08:28:13;10.03;;;8.03;;
26106;SDS011;13866;50.748;12.630;2023-04-30T08:30:38;12.10;;;8.40;;
26106;SDS011;13866;50.748;12.630;2023-04-30T08:33:04;12.63;;;9.50;;
26106;SDS011;13866;50.748;12.630;2023-04-30T08:35:29;15.50;;;12.43;;
26106;SDS011;13866;50.748;12.630;2023-04-30T08:37:55;14.60;;;11.10;;
26106;SDS011;13866;50.748;12.630;2023-04-30T08:40:20;18.60;;;9.73;;
26106;SDS011;13866;50.748;12.630;2023-04-30T08:42:49;18.23;;;11.47;;
26106;SDS011;13866;50.748;12.630;2023-04-30T08:45:21;18.97;;;15.00;;
26106;SDS011;13866;50.748;12.630;2023-04-30T08:47:46;33.23;;;21.77;;
26106;SDS011;13866;50.748;12.630;2023-04-30T08:50:13;20.60;;;18.47;;
26106;SDS011;13866;50.748;12.630;2023-04-30T08:52:39;25.23;;;17.97;;
26106;SDS011;13866;50.748;12.630;2023-04-30T08:55:07;17.43;;;11.70;;
26106;SDS011;13866;50.748;12.630;2023-04-30T08:57:35;16.20;;;14.50;;
26106;SDS011;13866;50.748;12.630;2023-04-30T09:00:00;27.00;;;16.47;;
26106;SDS011;13866;50.748;12.630;2023-04-30T09:02:26;19.60;;;15.37;;
26106;SDS011;13866;50.748;12.630;2023-04-30T09:04:51;13.67;;;11.27;;
26106;SDS011;13866;50.748;12.630;2023-04-30T09:07:17;13.67;;;12.37;;
26106;SDS011;13866;50.748;12.630;2023-04-30T09:09:44;14.17;;;12.70;;
26106;SDS011;13866;50.748;12.630;2023-04-30T09:12:10;26.67;;;19.80;;
26106;SDS011;13866;50.748;12.630;2023-04-30T09:14:46;22.43;;;19.03;;
26106;SDS011;13866;50.748;12.630;2023-04-30T09:17:32;14.93;;;13.37;;
26106;SDS011;13866;50.748;12.630;2023-04-30T09:20:11;14.73;;;13.30;;
26106;SDS011;13866;50.748;12.630;2023-04-30T09:22:38;22.33;;;20.00;;
26106;SDS011;13866;50.748;12.630;2023-04-30T09:25:05;29.80;;;19.33;;
26106;SDS011;13866;50.748;12.630;2023-04-30T09:27:31;31.60;;;24.07;;
26106;SDS011;13866;50.748;12.630;2023-04-30T09:29:57;32.70;;;25.00;;
26106;SDS011;13866;50.748;12.630;2023-04-30T09:32:23;28.07;;;21.63;;
26106;SDS011;13866;50.748;12.630;2023-04-30T09:34:48;27.37;;;18.20;;
26106;SDS011;13866;50.748;12.630;2023-04-30T09:37:14;19.60;;;16.50;;
26106;SDS011;13866;50.748;12.630;2023-04-30T09:39:50;22.87;;;20.53;;
26106;SDS011;13866;50.748;12.630;2023-04-30T09:42:18;21.60;;;16.87;;
26106;SDS011;13866;50.748;12.630;2023-04-30T09:44:44;18.40;;;14.23;;
26106;SDS011;13866;50.748;12.630;2023-04-30T09:47:12;12.63;;;11.67;;
26106;SDS011;13866;50.748;12.630;2023-04-30T09:49:40;11.30;;;9.30;;
26106;SDS011;13866;50.748;12.630;2023-04-30T09:52:07;19.83;;;9.13;;
26106;SDS011;13866;50.748;12.630;2023-04-30T09:54:32;11.90;;;7.90;;
26106;SDS011;13866;50.748;12.630;2023-04-30T09:57:00;11.13;;;9.87;;
26106;SDS011;13866;50.748;12.630;2023-04-30T09:59:30;9.23;;;8.20;;
26106;SDS011;13866;50.748;12.630;2023-04-30T10:01:59;15.53;;;11.10;;
26106;SDS011;13866;50.748;12.630;2023-04-30T10:04:27;18.60;;;11.00;;
26106;SDS011;13866;50.748;12.630;2023-04-30T10:06:54;11.17;;;10.10;;
26106;SDS011;13866;50.748;12.630;2023-04-30T10:09:23;12.50;;;11.23;;
26106;SDS011;13866;50.748;12.630;2023-04-30T10:11:52;11.93;;;10.80;;
26106;SDS011;13866;50.748;12.630;2023-04-30T10:14:18;10.73;;;9.73;;
26106;SDS011;13866;50.748;12.630;2023-04-30T10:16:54;17.87;;;10.50;;
26106;SDS011;13866;50.748;12.630;2023-04-30T10:19:35;10.87;;;9.57;;
26106;SDS011;13866;50.748;12.630;2023-04-30T10:22:03;12.10;;;5.87;;
26106;SDS011;13866;50.748;12.630;2023-04-30T10:24:29;6.23;;;5.53;;
26106;SDS011;13866;50.748;12.630;2023-04-30T10:26:55;11.20;;;7.10;;
26106;SDS011;13866;50.748;12.630;2023-04-30T10:29:21;16.47;;;9.47;;
26106;SDS011;13866;50.748;12.630;2023-04-30T10:31:47;7.53;;;6.17;;
26106;SDS011;13866;50.748;12.630;2023-04-30T10:37:12;16.27;;;7.00;;
26106;SDS011;13866;50.748;12.630;2023-04-30T10:39:46;7.27;;;6.83;;
26106;SDS011;13866;50.748;12.630;2023-04-30T10:42:11;6.47;;;5.97;;
26106;SDS011;13866;50.748;12.630;2023-04-30T10:44:37;7.80;;;4.67;;
26106;SDS011;13866;50.748;12.630;2023-04-30T10:47:04;4.97;;;4.53;;
26106;SDS011;13866;50.748;12.630;2023-04-30T10:49:30;6.73;;;4.63;;
26106;SDS011;13866;50.748;12.630;2023-04-30T10:52:00;5.67;;;5.27;;
26106;SDS011;13866;50.748;12.630;2023-04-30T10:54:28;12.20;;;5.00;;
26106;SDS011;13866;50.748;12.630;2023-04-30T10:57:12;6.87;;;5.47;;
26106;SDS011;13866;50.748;12.630;2023-04-30T10:59:42;4.80;;;4.50;;
26106;SDS011;13866;50.748;12.630;2023-04-30T11:02:11;5.93;;;4.73;;
26106;SDS011;13866;50.748;12.630;2023-04-30T11:10:15;9.70;;;6.77;;
26106;SDS011;13866;50.748;12.630;2023-04-30T11:12:46;7.33;;;6.70;;
26106;SDS011;13866;50.748;12.630;2023-04-30T11:15:13;9.07;;;6.70;;
26106;SDS011;13866;50.748;12.630;2023-04-30T11:17:42;8.83;;;8.10;;
26106;SDS011;13866;50.748;12.630;2023-04-30T11:20:11;8.47;;;7.87;;
26106;SDS011;13866;50.748;12.630;2023-04-30T11:22:46;6.67;;;6.00;;
26106;SDS011;13866;50.748;12.630;2023-04-30T11:25:37;5.93;;;5.60;;
26106;SDS011;13866;50.748;12.630;2023-04-30T11:28:09;8.37;;;6.50;;
26106;SDS011;13866;50.748;12.630;2023-04-30T11:30:40;6.57;;;5.27;;
26106;SDS011;13866;50.748;12.630;2023-04-30T11:33:14;14.83;;;8.23;;
26106;SDS011;13866;50.748;12.630;2023-04-30T11:35:39;7.57;;;6.57;;
26106;SDS011;13866;50.748;12.630;2023-04-30T11:38:05;4.10;;;3.80;;
26106;SDS011;13866;50.748;12.630;2023-04-30T11:40:33;4.83;;;4.53;;
26106;SDS011;13866;50.748;12.630;2023-04-30T11:43:00;4.83;;;4.60;;
26106;SDS011;13866;50.748;12.630;2023-04-30T11:45:26;7.40;;;4.90;;
26106;SDS011;13866;50.748;12.630;2023-04-30T11:47:53;4.57;;;4.03;;
26106;SDS011;13866;50.748;12.630;2023-04-30T11:50:20;8.77;;;5.23;;
26106;SDS011;13866;50.748;12.630;2023-04-30T11:52:56;4.43;;;4.23;;
26106;SDS011;13866;50.748;12.630;2023-04-30T11:55:23;3.70;;;3.60;;
26106;SDS011;13866;50.748;12.630;2023-04-30T11:57:52;3.83;;;3.53;;
26106;SDS011;13866;50.748;12.630;2023-04-30T12:00:20;3.87;;;3.60;;
26106;SDS011;13866;50.748;12.630;2023-04-30T12:02:49;4.03;;;3.73;;
26106;SDS011;13866;50.748;12.630;2023-04-30T12:05:15;5.90;;;5.60;;
26106;SDS011;13866;50.748;12.630;2023-04-30T12:10:43;4.27;;;4.17;;
26106;SDS011;13866;50.748;12.630;2023-04-30T12:13:08;5.13;;;4.67;;
26106;SDS011;13866;50.748;12.630;2023-04-30T12:15:37;4.40;;;4.03;;
26106;SDS011;13866;50.748;12.630;2023-04-30T12:18:09;4.97;;;4.37;;
26106;SDS011;13866;50.748;12.630;2023-04-30T12:20:37;4.87;;;4.30;;
26106;SDS011;13866;50.748;12.630;2023-04-30T12:23:04;5.37;;;4.67;;
26106;SDS011;13866;50.748;12.630;2023-04-30T12:25:31;5.17;;;4.50;;
26106;SDS011;13866;50.748;12.630;2023-04-30T12:28:05;4.47;;;4.07;;
26106;SDS011;13866;50.748;12.630;2023-04-30T12:30:30;4.00;;;3.70;;
26106;SDS011;13866;50.748;12.630;2023-04-30T12:32:57;4.00;;;3.80;;
26106;SDS011;13866;50.748;12.630;2023-04-30T12:35:26;4.37;;;4.10;;
26106;SDS011;13866;50.748;12.630;2023-04-30T12:38:00;4.53;;;4.13;;
26106;SDS011;13866;50.748;12.630;2023-04-30T12:40:27;7.63;;;3.43;;
26106;SDS011;13866;50.748;12.630;2023-04-30T12:43:06;5.17;;;3.50;;
26106;SDS011;13866;50.748;12.630;2023-04-30T12:45:42;3.40;;;3.20;;
26106;SDS011;13866;50.748;12.630;2023-04-30T12:48:08;4.20;;;3.90;;
26106;SDS011;13866;50.748;12.630;2023-04-30T12:50:34;3.30;;;3.20;;
26106;SDS011;13866;50.748;12.630;2023-04-30T12:53:05;5.43;;;4.93;;
26106;SDS011;13866;50.748;12.630;2023-04-30T12:55:31;3.93;;;3.60;;
26106;SDS011;13866;50.748;12.630;2023-04-30T12:58:09;4.53;;;4.33;;
26106;SDS011;13866;50.748;12.630;2023-04-30T13:00:50;3.10;;;2.73;;
26106;SDS011;13866;50.748;12.630;2023-04-30T13:03:16;4.67;;;3.50;;
26106;SDS011;13866;50.748;12.630;2023-04-30T13:05:45;10.63;;;4.30;;
26106;SDS011;13866;50.748;12.630;2023-04-30T13:08:12;6.10;;;4.27;;
26106;SDS011;13866;50.748;12.630;2023-04-30T13:10:38;4.80;;;3.60;;
26106;SDS011;13866;50.748;12.630;2023-04-30T13:13:04;13.43;;;4.80;;
26106;SDS011;13866;50.748;12.630;2023-04-30T13:15:29;5.03;;;3.90;;
26106;SDS011;13866;50.748;12.630;2023-04-30T13:17:55;4.90;;;4.43;;
26106;SDS011;13866;50.748;12.630;2023-04-30T13:20:20;4.63;;;4.27;;
26106;SDS011;13866;50.748;12.630;2023-04-30T13:22:46;3.70;;;3.40;;
26106;SDS011;13866;50.748;12.630;2023-04-30T13:25:11;3.90;;;3.70;;
26106;SDS011;13866;50.748;12.630;2023-04-30T13:27:36;3.77;;;3.57;;
26106;SDS011;13866;50.748;12.630;2023-04-30T13:30:02;4.03;;;3.90;;
26106;SDS011;13866;50.748;12.630;2023-04-30T13:32:28;3.30;;;3.10;;
26106;SDS011;13866;50.748;12.630;2023-04-30T13:34:54;3.77;;;3.47;;
26106;SDS011;13866;50.748;12.630;2023-04-30T13:37:20;4.60;;;4.20;;
26106;SDS011;13866;50.748;12.630;2023-04-30T13:39:46;4.17;;;3.90;;
26106;SDS011;13866;50.748;12.630;2023-04-30T13:42:12;3.97;;;3.87;;
26106;SDS011;13866;50.748;12.630;2023-04-30T13:44:38;5.07;;;4.00;;
26106;SDS011;13866;50.748;12.630;2023-04-30T13:47:04;3.90;;;3.70;;
26106;SDS011;13866;50.748;12.630;2023-04-30T13:49:30;8.57;;;4.40;;
26106;SDS011;13866;50.748;12.630;2023-04-30T13:51:55;3.30;;;3.20;;
26106;SDS011;13866;50.748;12.630;2023-04-30T13:54:21;3.90;;;3.60;;
26106;SDS011;13866;50.748;12.630;2023-04-30T13:56:46;4.27;;;4.07;;
26106;SDS011;13866;50.748;12.630;2023-04-30T13:59:12;5.17;;;4.67;;
26106;SDS011;13866;50.748;12.630;2023-04-30T14:01:39;4.93;;;3.87;;
26106;SDS011;13866;50.748;12.630;2023-04-30T14:04:05;5.93;;;5.13;;
26106;SDS011;13866;50.748;12.630;2023-04-30T14:06:32;4.40;;;4.20;;
26106;SDS011;13866;50.748;12.630;2023-04-30T14:08:57;7.70;;;4.43;;
26106;SDS011;13866;50.748;12.630;2023-04-30T14:11:23;5.20;;;4.47;;
26106;SDS011;13866;50.748;12.630;2023-04-30T14:13:49;5.17;;;4.93;;
26106;SDS011;13866;50.748;12.630;2023-04-30T14:16:15;7.00;;;6.40;;
26106;SDS011;13866;50.748;12.630;2023-04-30T14:18:40;4.23;;;3.63;;
26106;SDS011;13866;50.748;12.630;2023-04-30T14:21:06;7.20;;;3.80;;
26106;SDS011;13866;50.748;12.630;2023-04-30T14:23:31;4.47;;;3.70;;
26106;SDS011;13866;50.748;12.630;2023-04-30T14:25:58;8.57;;;2.83;;
26106;SDS011;13866;50.748;12.630;2023-04-30T14:28:23;3.93;;;3.40;;
26106;SDS011;13866;50.748;12.630;2023-04-30T14:30:49;4.07;;;3.53;;
26106;SDS011;13866;50.748;12.630;2023-04-30T14:33:14;2.87;;;2.77;;
26106;SDS011;13866;50.748;12.630;2023-04-30T14:35:40;4.30;;;3.57;;
26106;SDS011;13866;50.748;12.630;2023-04-30T14:38:05;3.43;;;3.13;;
26106;SDS011;13866;50.748;12.630;2023-04-30T14:40:31;3.17;;;3.07;;
26106;SDS011;13866;50.748;12.630;2023-04-30T14:42:56;3.33;;;3.23;;